createdAt,value
2022-10-05T00:03:04.045Z,1
2022-10-05T00:05:00.553Z,1
2022-10-05T00:07:00.400Z,1
2022-10-05T00:09:00.770Z,1
2022-10-05T00:11:00.799Z,1
2022-10-05T00:13:00.976Z,1
2022-10-05T00:15:00.852Z,1
2022-10-05T00:17:00.684Z,1
2022-10-05T00:19:00.662Z,1
2022-10-05T00:21:00.755Z,1
2022-10-05T00:23:07.541Z,1
2022-10-05T00:25:01.059Z,1
2022-10-05T00:27:00.390Z,1
2022-10-05T00:29:00.673Z,1
2022-10-05T00:31:00.761Z,1
2022-10-05T00:33:01.047Z,1
2022-10-05T00:35:01.327Z,1
2022-10-05T00:37:04.178Z,1
2022-10-05T00:39:09.325Z,1
2022-10-05T00:41:07.350Z,1
2022-10-05T00:43:03.779Z,1
2022-10-05T00:45:00.636Z,1
2022-10-05T00:46:59.963Z,1
2022-10-05T00:49:04.086Z,1
2022-10-05T00:51:00.591Z,1
2022-10-05T00:53:04.371Z,1
2022-10-05T00:55:07.483Z,1
2022-10-05T00:57:00.349Z,1
2022-10-05T00:59:00.694Z,1
2022-10-05T01:01:00.909Z,1
2022-10-05T01:03:01.205Z,1
2022-10-05T01:05:00.969Z,1
2022-10-05T01:07:01.017Z,1
2022-10-05T01:09:01.148Z,1
2022-10-05T01:11:00.817Z,1
2022-10-05T01:17:01.085Z,1
2022-10-05T01:19:00.094Z,1
2022-10-05T01:20:59.939Z,1
2022-10-05T01:23:00.982Z,1
2022-10-05T01:25:00.765Z,1
2022-10-05T01:26:59.892Z,1
2022-10-05T01:29:00.512Z,1
2022-10-05T01:31:04.037Z,1
2022-10-05T01:32:59.834Z,1
2022-10-05T01:35:01.414Z,1
2022-10-05T01:37:00.866Z,1
2022-10-05T01:39:01.111Z,1
2022-10-05T01:41:00.610Z,1
2022-10-05T01:43:00.827Z,1
2022-10-05T01:45:01.022Z,1
2022-10-05T01:47:01.064Z,1
2022-10-05T01:49:00.688Z,1
2022-10-05T01:51:00.704Z,1
2022-10-05T01:53:00.586Z,1
2022-10-05T01:55:00.718Z,1
2022-10-05T01:57:00.736Z,1
2022-10-05T01:59:00.604Z,1
2022-10-05T02:01:07.073Z,1
2022-10-05T02:02:58.057Z,1
2022-10-05T02:05:07.700Z,1
2022-10-05T02:07:00.568Z,1
2022-10-05T02:09:04.147Z,1
2022-10-05T02:11:01.185Z,1
2022-10-05T02:13:01.354Z,1
2022-10-05T02:15:00.988Z,1
2022-10-05T02:17:04.512Z,1
2022-10-05T02:19:00.916Z,1
2022-10-05T02:21:01.084Z,1
2022-10-05T02:23:01.143Z,1
2022-10-05T02:25:04.427Z,1
2022-10-05T02:27:04.255Z,1
2022-10-05T02:29:00.988Z,1
2022-10-05T02:31:04.465Z,1
2022-10-05T02:33:04.256Z,1
2022-10-05T02:35:08.003Z,1
2022-10-05T02:37:01.216Z,1
2022-10-05T02:39:00.477Z,1
2022-10-05T02:41:00.915Z,1
2022-10-05T02:43:00.330Z,1
2022-10-05T02:45:04.163Z,1
2022-10-05T02:47:00.875Z,1
2022-10-05T02:49:07.296Z,1
2022-10-05T02:51:07.388Z,1
2022-10-05T02:53:00.725Z,1
2022-10-05T02:55:01.167Z,1
2022-10-05T02:57:01.290Z,1
2022-10-05T02:59:01.157Z,1
2022-10-05T03:01:00.681Z,1
2022-10-05T03:03:00.956Z,1
2022-10-05T03:05:01.106Z,1
2022-10-05T03:07:00.556Z,1
2022-10-05T03:09:04.407Z,1
2022-10-05T03:11:07.574Z,1
2022-10-05T03:13:01.530Z,1
2022-10-05T03:15:00.966Z,1
2022-10-05T03:17:04.428Z,1
2022-10-05T03:19:00.805Z,1
2022-10-05T03:21:01.015Z,1
2022-10-05T03:23:00.958Z,1
2022-10-05T03:25:00.580Z,1
2022-10-05T03:27:03.988Z,1
2022-10-05T03:29:04.147Z,1
2022-10-05T03:31:01.163Z,1
2022-10-05T03:33:02.001Z,1
2022-10-05T03:35:00.657Z,1
2022-10-05T03:37:00.976Z,1
2022-10-05T03:39:01.168Z,1
2022-10-05T03:41:07.432Z,1
2022-10-05T03:43:00.842Z,1
2022-10-05T03:45:04.215Z,1
2022-10-05T03:47:13.906Z,1
2022-10-05T03:49:00.839Z,1
2022-10-05T03:51:00.778Z,1
2022-10-05T03:55:07.759Z,1
2022-10-05T03:57:00.806Z,1
2022-10-05T03:59:04.132Z,1
2022-10-05T04:01:00.540Z,1
2022-10-05T04:03:01.001Z,1
2022-10-05T04:05:00.512Z,1
2022-10-05T04:07:04.413Z,1
2022-10-05T04:09:00.316Z,1
2022-10-05T04:11:01.016Z,1
2022-10-05T04:13:01.054Z,1
2022-10-05T04:15:13.146Z,1
2022-10-05T04:17:00.980Z,1
2022-10-05T04:19:04.372Z,1
2022-10-05T04:21:00.469Z,1
2022-10-05T04:23:01.429Z,1
2022-10-05T04:25:01.081Z,1
2022-10-05T04:27:07.610Z,1
2022-10-05T04:29:03.948Z,1
2022-10-05T04:31:07.509Z,0
2022-10-05T04:33:00.623Z,0
2022-10-05T04:35:04.400Z,0
2022-10-05T04:37:01.243Z,0
2022-10-05T04:39:00.893Z,0.1
2022-10-05T04:41:04.564Z,0.1
2022-10-05T04:43:04.289Z,0.2
2022-10-05T04:44:59.298Z,0.3
2022-10-05T04:46:58.833Z,0.4
2022-10-05T04:48:57.508Z,0.7
2022-10-05T04:51:03.709Z,1.1
2022-10-05T04:52:57.592Z,1.6
2022-10-05T04:54:57.484Z,2.3
2022-10-05T04:56:58.926Z,3.7
2022-10-05T04:59:04.577Z,5.8
2022-10-05T05:01:07.332Z,8.6
2022-10-05T05:03:04.070Z,12.2
2022-10-05T05:04:57.513Z,17.3
2022-10-05T05:06:57.460Z,25.8
2022-10-05T05:09:02.900Z,36.6
2022-10-05T05:10:57.537Z,49.4
2022-10-05T05:12:58.990Z,63.4
2022-10-05T05:15:04.887Z,81.5
2022-10-05T05:17:13.100Z,104.6
2022-10-05T05:18:57.534Z,127.7
2022-10-05T05:21:02.679Z,148.4
2022-10-05T05:22:56.446Z,172.4
2022-10-05T05:24:58.490Z,210.6
2022-10-05T05:26:57.591Z,244.7
2022-10-05T05:28:57.485Z,284.3
2022-10-05T05:30:57.651Z,330.3
2022-10-05T05:33:02.762Z,383.8
2022-10-05T05:35:04.012Z,445.9
2022-10-05T05:36:57.463Z,492.7
2022-10-05T05:38:57.438Z,544.6
2022-10-05T05:41:02.699Z,601.8
2022-10-05T05:42:57.746Z,632.7
2022-10-05T05:45:03.184Z,699.2
2022-10-05T05:47:03.806Z,735.1
2022-10-05T05:49:04.040Z,772.8
2022-10-05T05:50:57.579Z,854.1
2022-10-05T05:53:03.255Z,897.8
2022-10-05T05:55:07.861Z,992.3
2022-10-05T05:56:57.599Z,1096.6
2022-10-05T05:59:04.674Z,1152.9
2022-10-05T06:00:57.495Z,1212
2022-10-05T06:03:02.588Z,1274.1
2022-10-05T06:04:57.721Z,1339.4
2022-10-05T06:06:57.610Z,1408.1
2022-10-05T06:10:57.786Z,1480.3
2022-10-05T06:13:00.890Z,1556.2
2022-10-05T06:15:06.216Z,1556.2
2022-10-05T06:16:57.765Z,1636
2022-10-05T06:19:08.965Z,1636
2022-10-05T06:20:57.593Z,1719.9
2022-10-05T06:23:09.327Z,1719.9
2022-10-05T06:25:04.510Z,1808
2022-10-05T06:26:57.518Z,1808
2022-10-05T06:29:06.021Z,1808
2022-10-05T06:30:57.434Z,1900.7
2022-10-05T06:32:57.247Z,1900.7
2022-10-05T06:34:57.546Z,1998.2
2022-10-05T06:36:59.202Z,2100.6
2022-10-05T06:38:57.439Z,2100.6
2022-10-05T06:40:57.948Z,2208.3
2022-10-05T06:43:02.947Z,2208.3
2022-10-05T06:45:04.287Z,2321.6
2022-10-05T06:46:57.816Z,2321.6
2022-10-05T06:49:02.920Z,2321.6
2022-10-05T06:50:57.482Z,2440.6
2022-10-05T06:53:12.877Z,2565.7
2022-10-05T06:55:04.672Z,2565.7
2022-10-05T06:56:57.846Z,2697.3
2022-10-05T07:00:57.741Z,9414.4
2022-10-05T07:03:02.977Z,18958.4
2022-10-05T07:04:57.834Z,19930.4
2022-10-05T07:07:05.770Z,20952.2
2022-10-05T07:08:57.691Z,22026.5
2022-10-05T07:11:11.394Z,23155.8
2022-10-05T07:12:58.090Z,24343
2022-10-05T07:15:09.144Z,25591.1
2022-10-05T07:16:57.627Z,25591.1
2022-10-05T07:19:04.683Z,25591.1
2022-10-05T07:21:06.906Z,25591.1
2022-10-05T07:23:11.036Z,26903.2
2022-10-05T07:24:57.574Z,26903.2
2022-10-05T07:27:12.484Z,11498.8
2022-10-05T07:28:57.571Z,4675.1
2022-10-05T07:30:57.888Z,4230.2
2022-10-05T07:32:58.852Z,13359.7
2022-10-05T07:34:57.729Z,22026.5
2022-10-05T07:37:03.221Z,16317.6
2022-10-05T07:39:03.979Z,26903.2
2022-10-05T07:40:57.955Z,32859.6
2022-10-05T07:42:57.449Z,32859.6
2022-10-05T07:44:59.106Z,34544.4
2022-10-05T07:46:56.297Z,34544.4
2022-10-05T07:48:57.636Z,34544.4
2022-10-05T07:51:05.551Z,34544.4
2022-10-05T07:52:57.458Z,34544.4
2022-10-05T07:55:09.089Z,36315.5
2022-10-05T07:56:57.654Z,36315.5
2022-10-05T08:00:57.882Z,28282.5
2022-10-05T08:02:59.058Z,38177.4
2022-10-05T08:04:57.715Z,40134.8
2022-10-05T08:07:04.769Z,42192.6
2022-10-05T08:09:04.502Z,44355.9
2022-10-05T08:10:57.837Z,44355.9
2022-10-05T08:13:03.435Z,44355.9
2022-10-05T08:14:57.723Z,46630
2022-10-05T08:16:57.671Z,38177.4
2022-10-05T08:20:57.622Z,40134.8
2022-10-05T08:23:04.058Z,49020.8
2022-10-05T08:24:57.647Z,46630
2022-10-05T08:26:59.021Z,44355.9
2022-10-05T08:28:57.876Z,49020.8
2022-10-05T08:30:57.542Z,49020.8
2022-10-05T08:34:08.353Z,51534.2
2022-10-05T08:39:20.405Z,44355.9
2022-10-05T08:44:45.412Z,46630
2022-10-05T08:51:14.885Z,42192.6
2022-10-05T08:53:06.769Z,42192.6
2022-10-05T08:55:06.966Z,42192.6
2022-10-05T08:57:13.619Z,49020.8
2022-10-05T09:01:16.815Z,46630
2022-10-05T09:03:07.364Z,46630
2022-10-05T09:05:07.126Z,44355.9
2022-10-05T09:07:06.702Z,40134.8
2022-10-05T09:09:06.847Z,40134.8
2022-10-05T09:11:07.037Z,42192.6
2022-10-05T09:13:07.011Z,44355.9
2022-10-05T09:15:25.191Z,49020.8
2022-10-05T09:17:06.579Z,51534.2
2022-10-05T09:19:07.058Z,49020.8
2022-10-05T09:21:06.745Z,51534.2
2022-10-05T09:23:06.663Z,51534.2
2022-10-05T09:25:06.670Z,54176.4
2022-10-05T09:27:07.164Z,56954
2022-10-05T09:29:11.189Z,56954
2022-10-05T09:31:10.031Z,54176.4
2022-10-05T09:33:06.839Z,54176.4
2022-10-05T09:35:07.130Z,56954
2022-10-05T09:37:10.156Z,56954
2022-10-05T09:39:06.682Z,62944
2022-10-05T09:41:07.031Z,56954
2022-10-05T09:43:07.114Z,59874.1
2022-10-05T09:45:06.904Z,59874.1
2022-10-05T09:47:06.753Z,56954
2022-10-05T09:49:06.720Z,56954
2022-10-05T09:51:07.158Z,59874.1
2022-10-05T09:53:13.682Z,59874.1
2022-10-05T09:55:13.378Z,56954
2022-10-05T09:57:09.486Z,54176.4
2022-10-05T09:59:12.111Z,54176.4
2022-10-05T10:03:13.449Z,59874.1
2022-10-05T10:05:06.635Z,59874.1
2022-10-05T10:07:10.832Z,62944
2022-10-05T10:09:07.014Z,66171.2
2022-10-05T10:11:07.972Z,69563.8
2022-10-05T10:13:06.682Z,62944
2022-10-05T10:17:09.688Z,66171.2
2022-10-05T10:19:07.050Z,66171.2
2022-10-05T10:21:07.061Z,66171.2
2022-10-05T10:23:07.271Z,62944
2022-10-05T10:25:07.297Z,66171.2
2022-10-05T10:27:08.021Z,62944
2022-10-05T10:29:06.848Z,69563.8
2022-10-05T10:31:06.888Z,73130.4
2022-10-05T10:33:06.912Z,62944
2022-10-05T10:35:07.311Z,66171.2
2022-10-05T10:37:06.759Z,59874.1
2022-10-05T10:39:08.041Z,69563.8
2022-10-05T10:41:06.677Z,66171.2
2022-10-05T10:43:06.973Z,69563.8
2022-10-05T10:45:06.459Z,51534.2
2022-10-05T10:47:14.219Z,66171.2
2022-10-05T10:49:06.889Z,69563.8
2022-10-05T10:51:16.760Z,62944
2022-10-05T10:53:06.674Z,69563.8
2022-10-05T10:55:10.788Z,66171.2
2022-10-05T10:57:13.351Z,62944
2022-10-05T10:59:06.812Z,66171.2
2022-10-05T11:01:06.730Z,69563.8
2022-10-05T11:03:07.715Z,69563.8
2022-10-05T11:07:07.268Z,73130.4
2022-10-05T11:09:10.274Z,69563.8
2022-10-05T11:11:10.876Z,66171.2
2022-10-05T11:13:07.629Z,62944
2022-10-05T11:15:06.677Z,66171.2
2022-10-05T11:17:07.654Z,69563.8
2022-10-05T11:19:15.300Z,66171.2
2022-10-05T11:21:06.611Z,62944
2022-10-05T11:23:06.843Z,66171.2
2022-10-05T11:25:09.769Z,69563.8
2022-10-05T11:27:06.762Z,69563.8
2022-10-05T11:29:06.982Z,69563.8
2022-10-05T11:31:06.593Z,69563.8
2022-10-05T11:33:06.706Z,66171.2
2022-10-05T11:35:06.984Z,66171.2
2022-10-05T11:37:06.955Z,62944
2022-10-05T11:39:07.438Z,62944
2022-10-05T11:41:12.277Z,54176.4
2022-10-05T11:43:05.237Z,54176.4
2022-10-05T11:45:10.217Z,51534.2
2022-10-05T11:47:07.048Z,56954
2022-10-05T11:49:06.901Z,54176.4
2022-10-05T11:51:14.104Z,54176.4
2022-10-05T11:53:06.858Z,54176.4
2022-10-05T11:55:11.602Z,49020.8
2022-10-05T11:57:10.483Z,54176.4
2022-10-05T11:59:06.851Z,54176.4
2022-10-05T12:01:06.797Z,51534.2
2022-10-05T12:03:06.705Z,51534.2
2022-10-05T12:05:06.683Z,46630
2022-10-05T12:07:10.073Z,46630
2022-10-05T12:09:07.531Z,49020.8
2022-10-05T12:11:10.303Z,49020.8
2022-10-05T12:13:11.718Z,46630
2022-10-05T12:15:13.418Z,40134.8
2022-10-05T12:17:06.965Z,40134.8
2022-10-05T12:19:13.506Z,38177.4
2022-10-05T12:21:09.963Z,46630
2022-10-05T12:23:08.123Z,46630
2022-10-05T12:25:06.919Z,51534.2
2022-10-05T12:27:06.901Z,49020.8
2022-10-05T12:29:09.741Z,46630
2022-10-05T12:31:17.663Z,51534.2
2022-10-05T12:33:07.128Z,49020.8
2022-10-05T12:35:11.739Z,40134.8
2022-10-05T12:37:07.151Z,38177.4
2022-10-05T12:39:06.993Z,38177.4
2022-10-05T12:41:11.203Z,38177.4
2022-10-05T12:43:12.835Z,40134.8
2022-10-05T12:45:06.758Z,40134.8
2022-10-05T12:47:09.917Z,38177.4
2022-10-05T12:49:10.088Z,38177.4
2022-10-05T12:51:13.481Z,38177.4
2022-10-05T12:53:06.846Z,36315.5
2022-10-05T12:55:07.157Z,38177.4
2022-10-05T12:57:11.973Z,40134.8
2022-10-05T12:59:07.062Z,40134.8
2022-10-05T13:03:07.054Z,34544.4
2022-10-05T13:05:10.586Z,34544.4
2022-10-05T13:07:10.475Z,34544.4
2022-10-05T13:09:14.373Z,36315.5
2022-10-05T13:11:08.504Z,46630
2022-10-05T13:13:06.994Z,46630
2022-10-05T13:15:10.126Z,44355.9
2022-10-05T13:17:07.011Z,46630
2022-10-05T13:19:11.012Z,51534.2
2022-10-05T13:21:08.447Z,51534.2
2022-10-05T13:23:10.209Z,51534.2
2022-10-05T13:25:07.111Z,51534.2
2022-10-05T13:27:09.393Z,51534.2
2022-10-05T13:29:14.685Z,51534.2
2022-10-05T13:31:07.032Z,49020.8
2022-10-05T13:33:06.791Z,40134.8
2022-10-05T13:35:11.339Z,44355.9
2022-10-05T13:37:10.309Z,49020.8
2022-10-05T13:41:13.497Z,42192.6
2022-10-05T13:43:13.635Z,34544.4
2022-10-05T13:45:13.538Z,42192.6
2022-10-05T13:47:07.034Z,40134.8
2022-10-05T13:49:08.196Z,28282.5
2022-10-05T13:51:09.628Z,19930.4
2022-10-05T13:53:06.945Z,18958.4
2022-10-05T13:55:12.713Z,25591.1
2022-10-05T13:57:07.039Z,22026.5
2022-10-05T13:59:06.580Z,25591.1
2022-10-05T14:01:07.007Z,18033.7
2022-10-05T14:03:11.699Z,18033.7
2022-10-05T14:05:06.622Z,14764.8
2022-10-05T14:07:09.695Z,18033.7
2022-10-05T14:11:06.732Z,11498.8
2022-10-05T14:13:09.569Z,9414.4
2022-10-05T14:15:06.873Z,8518.5
2022-10-05T14:17:09.956Z,8103.1
2022-10-05T14:19:14.250Z,8103.1
2022-10-05T14:21:10.604Z,7332
2022-10-05T14:23:07.113Z,7332
2022-10-05T14:25:12.332Z,6974.4
2022-10-05T14:27:10.437Z,6974.4
2022-10-05T14:29:07.057Z,6974.4
2022-10-05T14:31:07.480Z,6974.4
2022-10-05T14:33:13.741Z,6634.2
2022-10-05T14:35:06.551Z,6974.4
2022-10-05T14:37:06.962Z,6974.4
2022-10-05T14:39:14.582Z,6634.2
2022-10-05T14:41:10.410Z,6310.7
2022-10-05T14:43:10.363Z,6310.7
2022-10-05T14:47:17.493Z,6002.9
2022-10-05T14:49:06.733Z,5710.1
2022-10-05T14:51:06.982Z,5710.1
2022-10-05T14:53:09.774Z,5710.1
2022-10-05T14:55:10.492Z,5431.7
2022-10-05T14:57:06.785Z,5166.8
2022-10-05T14:59:10.752Z,4914.8
2022-10-05T15:01:07.354Z,4914.8
2022-10-05T15:03:11.686Z,4914.8
2022-10-05T15:05:10.123Z,4914.8
2022-10-05T15:07:10.214Z,4675.1
2022-10-05T15:09:12.492Z,4447.1
2022-10-05T15:11:13.681Z,4675.1
2022-10-05T15:13:11.299Z,4230.2
2022-10-05T15:16:50.647Z,4023.9
2022-10-05T15:18:50.575Z,3827.6
2022-10-05T15:20:47.034Z,3641
2022-10-05T15:22:46.929Z,3463.4
2022-10-05T15:24:46.990Z,3294.5
2022-10-05T15:26:58.677Z,3294.5
2022-10-05T15:30:47.110Z,3294.5
2022-10-05T15:32:46.964Z,3294.5
2022-10-05T15:34:54.125Z,2981
2022-10-05T15:36:47.171Z,2697.3
2022-10-05T15:38:47.173Z,2565.7
2022-10-05T15:40:50.012Z,2565.7
2022-10-05T15:42:47.018Z,2440.6
2022-10-05T15:46:49.403Z,2208.3
2022-10-05T15:48:50.387Z,2208.3
2022-10-05T15:50:53.813Z,2100.6
2022-10-05T15:52:47.245Z,1998.2
2022-10-05T15:54:50.421Z,1900.7
2022-10-05T15:56:46.986Z,1808
2022-10-05T15:58:50.224Z,1719.9
2022-10-05T16:00:47.051Z,1556.2
2022-10-05T16:02:47.155Z,1480.3
2022-10-05T16:04:53.531Z,1408.1
2022-10-05T16:06:47.040Z,1339.4
2022-10-05T16:08:47.078Z,1212
2022-10-05T16:10:48.698Z,1152.9
2022-10-05T16:12:46.991Z,1096.6
2022-10-05T16:14:46.869Z,992.3
2022-10-05T16:16:54.049Z,943.9
2022-10-05T16:18:47.378Z,854.1
2022-10-05T16:20:51.514Z,735.1
2022-10-05T16:22:50.336Z,632.7
2022-10-05T16:24:46.963Z,572.5
2022-10-05T16:26:47.075Z,544.6
2022-10-05T16:28:47.061Z,492.7
2022-10-05T16:30:51.430Z,445.9
2022-10-05T16:32:50.326Z,403.4
2022-10-05T16:34:47.050Z,365
2022-10-05T16:36:50.452Z,314.2
2022-10-05T16:38:47.335Z,284.3
2022-10-05T16:40:46.909Z,244.7
2022-10-05T16:42:47.208Z,210.6
2022-10-05T16:44:50.696Z,181.3
2022-10-05T16:46:47.104Z,172.4
2022-10-05T16:48:47.312Z,156
2022-10-05T16:50:50.173Z,127.7
2022-10-05T16:52:50.483Z,104.6
2022-10-05T16:54:50.549Z,81.5
2022-10-05T16:56:46.999Z,60.3
2022-10-05T16:58:47.020Z,42.5
2022-10-05T17:02:47.467Z,19.1
2022-10-05T17:04:53.612Z,11.6
2022-10-05T17:06:50.245Z,8.2
2022-10-05T17:08:50.340Z,5.8
2022-10-05T17:10:47.271Z,3.9
2022-10-05T17:12:50.347Z,2.7
2022-10-05T17:14:53.829Z,1.8
2022-10-05T17:16:47.270Z,1.2
2022-10-05T17:18:49.725Z,0.9
2022-10-05T17:20:50.671Z,0.6
2022-10-05T17:22:46.950Z,0.4
2022-10-05T17:24:50.541Z,0.3
2022-10-05T17:26:47.146Z,0.3
2022-10-05T17:28:47.218Z,0.2
2022-10-05T17:30:48.463Z,0.1
2022-10-05T17:32:50.660Z,0.1
2022-10-05T17:34:47.404Z,0.1
2022-10-05T17:36:48.688Z,0
2022-10-05T17:38:47.081Z,0
2022-10-05T17:40:47.153Z,0
2022-10-05T17:42:52.820Z,0
2022-10-05T17:44:46.952Z,0
2022-10-05T17:46:48.509Z,0
2022-10-05T17:48:50.388Z,0
2022-10-05T17:50:50.700Z,0
2022-10-05T17:52:47.105Z,0
2022-10-05T17:54:47.140Z,0
2022-10-05T17:56:50.641Z,0
2022-10-05T17:58:47.298Z,0
2022-10-05T18:00:52.504Z,0
2022-10-05T18:02:44.816Z,0
2022-10-05T18:04:51.433Z,0
2022-10-05T18:06:47.252Z,0
2022-10-05T18:08:46.899Z,0
2022-10-05T18:10:53.069Z,0
2022-10-05T18:12:47.161Z,0
2022-10-05T18:14:55.576Z,0
2022-10-05T18:16:46.948Z,0
2022-10-05T18:18:46.984Z,0
2022-10-05T18:20:50.546Z,0
2022-10-05T18:22:47.228Z,0
2022-10-05T18:24:46.924Z,0
2022-10-05T18:26:49.723Z,0
2022-10-05T18:28:47.039Z,0
2022-10-05T18:30:47.073Z,0
2022-10-05T18:32:48.358Z,0
2022-10-05T18:34:51.181Z,0
2022-10-05T18:36:46.930Z,0
2022-10-05T18:38:47.013Z,0
2022-10-05T18:42:50.306Z,0
2022-10-05T18:44:47.270Z,0
2022-10-05T18:46:51.893Z,0
2022-10-05T18:48:46.982Z,0
2022-10-05T18:50:53.501Z,0
2022-10-05T18:52:46.971Z,0
2022-10-05T18:54:44.853Z,0
2022-10-05T18:56:45.017Z,0
2022-10-05T18:58:47.055Z,0
2022-10-05T19:00:47.030Z,0
2022-10-05T19:02:48.447Z,0
2022-10-05T19:04:53.695Z,0
2022-10-05T19:06:50.677Z,0
2022-10-05T19:08:50.536Z,0
2022-10-05T19:10:50.491Z,0
2022-10-05T19:12:47.099Z,0
2022-10-05T19:14:47.005Z,0
2022-10-05T19:16:47.069Z,0
2022-10-05T19:18:49.750Z,0
2022-10-05T19:20:47.127Z,0
2022-10-05T19:22:47.455Z,0
2022-10-05T19:24:46.986Z,0
2022-10-05T19:26:47.148Z,0
2022-10-05T19:28:47.157Z,0
2022-10-05T19:30:47.343Z,0
2022-10-05T19:32:49.783Z,0
2022-10-05T19:34:50.272Z,0
2022-10-05T19:36:47.018Z,0
2022-10-05T19:38:47.064Z,0
2022-10-05T19:40:52.904Z,0.1
2022-10-05T19:42:47.102Z,0
2022-10-05T19:44:47.359Z,0
2022-10-05T19:46:48.478Z,0
2022-10-05T19:48:50.582Z,0
2022-10-05T19:50:50.564Z,0
2022-10-05T19:52:49.931Z,0
2022-10-05T19:56:45.181Z,0
2022-10-05T19:58:47.165Z,0.1
2022-10-05T20:00:49.677Z,0.1
2022-10-05T20:02:53.849Z,0.1
2022-10-05T20:04:50.159Z,0.1
2022-10-05T20:06:47.172Z,0.1
2022-10-05T20:08:50.558Z,0.1
2022-10-05T20:10:53.825Z,0.1
2022-10-05T20:12:47.182Z,0.1
2022-10-05T20:14:47.082Z,0.1
2022-10-05T20:16:49.772Z,0
2022-10-05T20:18:46.692Z,0
2022-10-05T20:20:48.599Z,0
2022-10-05T20:22:50.725Z,0.1
2022-10-05T20:24:47.019Z,0.1
2022-10-05T20:26:47.008Z,0.1
2022-10-05T20:28:47.144Z,0.1
2022-10-05T20:30:54.804Z,0.1
2022-10-05T20:32:53.833Z,0.1
2022-10-05T20:36:45.168Z,0
2022-10-05T20:38:47.185Z,0
2022-10-05T20:40:47.331Z,0
2022-10-05T20:42:47.240Z,0.1
2022-10-05T20:44:54.389Z,0.1
2022-10-05T20:46:50.310Z,0.1
2022-10-05T20:50:50.629Z,0.1
2022-10-05T20:52:47.077Z,0
2022-10-05T20:54:48.642Z,0
2022-10-05T20:56:50.619Z,0
2022-10-05T20:58:47.102Z,0.1
2022-10-05T21:00:50.173Z,0.1
2022-10-05T21:02:44.307Z,0.1
2022-10-05T21:04:50.196Z,0.1
2022-10-05T21:06:46.987Z,0
2022-10-05T21:08:47.948Z,0
2022-10-05T21:10:47.002Z,0
2022-10-05T21:12:50.678Z,0
2022-10-05T21:14:47.074Z,0
2022-10-05T21:16:47.237Z,0
2022-10-05T21:18:47.029Z,0
2022-10-05T21:20:52.451Z,0
2022-10-05T21:22:50.451Z,0
2022-10-05T21:24:47.110Z,0
2022-10-05T21:26:47.263Z,0
2022-10-05T21:28:49.445Z,0
2022-10-05T21:30:46.960Z,0
2022-10-05T21:32:47.121Z,0
2022-10-05T21:34:47.396Z,0
2022-10-05T21:36:54.692Z,0
2022-10-05T21:38:47.045Z,0
2022-10-05T21:40:50.757Z,0
2022-10-05T21:42:46.923Z,0
2022-10-05T21:44:50.639Z,0
2022-10-05T21:46:53.740Z,0
2022-10-05T21:48:47.106Z,0
2022-10-05T21:50:47.212Z,0
2022-10-05T21:52:46.987Z,0
2022-10-05T21:56:47.327Z,0
2022-10-05T21:58:54.561Z,0
2022-10-05T22:00:47.468Z,0
2022-10-05T22:04:47.086Z,0
2022-10-05T22:06:50.465Z,0
2022-10-05T22:08:46.982Z,0
2022-10-05T22:10:50.100Z,0
2022-10-05T22:12:47.039Z,0
2022-10-05T22:14:47.217Z,0
2022-10-05T22:16:47.372Z,0
2022-10-05T22:18:47.089Z,0
2022-10-05T22:20:50.256Z,0
2022-10-05T22:22:53.717Z,0
2022-10-05T22:24:50.497Z,0
2022-10-05T22:26:50.247Z,0
2022-10-05T22:30:47.161Z,0
2022-10-05T22:32:50.683Z,0
2022-10-05T22:34:47.200Z,0
2022-10-05T22:36:47.177Z,0
2022-10-05T22:38:50.615Z,0
2022-10-05T22:40:44.268Z,0
2022-10-05T22:42:46.993Z,0
2022-10-05T22:44:53.780Z,0
2022-10-05T22:46:47.243Z,0
2022-10-05T22:48:48.653Z,1
2022-10-05T22:50:47.077Z,1
2022-10-05T22:52:54.507Z,1
2022-10-05T22:54:50.493Z,1
2022-10-05T22:56:53.916Z,1
2022-10-05T22:58:47.235Z,1
2022-10-05T23:00:57.879Z,1
2022-10-05T23:02:47.128Z,1
2022-10-05T23:04:50.172Z,1
2022-10-05T23:06:47.199Z,1
2022-10-05T23:08:46.978Z,1
2022-10-05T23:10:50.738Z,1
2022-10-05T23:12:47.080Z,1
2022-10-05T23:14:54.319Z,1
2022-10-05T23:16:47.726Z,1
2022-10-05T23:18:47.092Z,1
2022-10-05T23:20:50.380Z,1
2022-10-05T23:24:47.022Z,1
2022-10-05T23:26:47.181Z,1
2022-10-05T23:28:56.091Z,1
2022-10-05T23:30:47.383Z,1
2022-10-05T23:32:47.208Z,1
2022-10-05T23:34:47.997Z,1
2022-10-05T23:36:47.524Z,1
2022-10-05T23:38:49.955Z,1
2022-10-05T23:40:47.086Z,1
2022-10-05T23:42:50.580Z,1
2022-10-05T23:44:47.261Z,1
2022-10-05T23:46:48.729Z,1
2022-10-05T23:48:47.130Z,1
2022-10-05T23:50:47.284Z,1
2022-10-05T23:52:47.186Z,1
2022-10-05T23:54:47.521Z,1
2022-10-05T23:56:53.384Z,1
2022-10-05T23:58:53.876Z,1
